APL Norway — A8NC4 — position and weather

sailwx.info

Track history (hours):
 
Tides and Currents Weather Stations Pressure Air Temp Water Temp Dewpoint Dewpoint Depression Visibility Wind Speed Wind Dir Waves Ship Positions

APL Norway

Last reported at 2015-Jul-01 18:32 UTC. Time now 2015-Jul-01 23:10 UTC.
Position N 22°07' E 114°30'.

Length 295 m; draft 10.9 m.

Type: Cargo ship. MMSI: 636013456.

Date/timePositionNaut miles runAvg speedWind from/ knotsBaromVisibWave heightAir tempDewpointWater temp
2015-Jul-01 18:32N 22°07' E 114°30'1515.4
2015-Jul-01 17:32N 22°08' E 114°13'1111.1
2015-Jul-01 16:33N 22°16' E 114°06'4 3.9
2015-Jul-01 15:31N 22°20' E 114°08'0 0.0
2015-Jul-01 14:31N 22°20' E 114°08'0 0.0
2015-Jul-01 13:31N 22°20' E 114°08'0 0.0
2015-Jul-01 12:31N 22°20' E 114°08'0 0.0
2015-Jul-01 11:31N 22°20' E 114°08'0 0.0
2015-Jul-01 10:31N 22°20' E 114°08'0 0.0
2015-Jul-01 09:31N 22°20' E 114°08'0 0.0
2015-Jul-01 08:31N 22°20' E 114°08'0 0.0
2015-Jul-01 07:31N 22°20' E 114°08'2 1.7
2015-Jul-01 06:33N 22°19' E 114°06'1 1.2
2015-Jul-01 05:27N 22°19' E 114°05'0 0.0
2015-Jul-01 04:33N 22°19' E 114°05'0 0.0
2015-Jul-01 03:33N 22°19' E 114°05'0 0.1
2015-Jul-01 02:27N 22°19' E 114°05'0 0.2
2015-Jul-01 01:33N 22°19' E 114°05'0 0.2
2015-Jul-01 00:33N 22°19' E 114°05'0 0.1
2015-Jun-30 23:33N 22°19' E 114°05'8 7.7
2015-Jun-30 22:34N 22°21' E 113°56'8 7.8
2015-Jun-30 21:32N 22°28' E 113°53'0 0.0
2015-Jun-30 20:03N 22°28' E 113°53'0 0.0
2015-Jun-30 19:03N 22°28' E 113°53'0 0.0
2015-Jun-30 18:21N 22°28' E 113°53'0 0.0
2015-Jun-30 16:15N 22°28' E 113°53'0 0.0
2015-Jun-30 14:09N 22°28' E 113°53'0 0.0
2015-Jun-30 13:21N 22°28' E 113°53'0 0.0
2015-Jun-30 12:27N 22°28' E 113°53'0 0.0
2015-Jun-30 11:32N 22°28' E 113°53'4 3.8
2015-Jun-30 10:33N 22°24' E 113°54'11 8.9
2015-Jun-30 09:17N 22°20' E 114°05'17 9.6
2015-Jun-30 07:33N 22°09' E 114°18'22516.0
2015-Jun-29 17:31N 23°37' E 118°03'2420.0
2015-Jun-29 16:18N 23°54' E 118°22'4019.3
2015-Jun-29 14:15N 24°18' E 118°56'7018.2
2015-Jun-29 10:25N 25°00' E 119°57'1517.0
2015-Jun-29 09:32N 25°09' E 120°09'34515.7
2015-Jun-28 11:30N 30°25' E 122°48'1916.3
2015-Jun-28 10:20N 30°32' E 122°28'1013.3
2015-Jun-28 09:33N 30°33' E 122°16'10 9.3
2015-Jun-28 08:30N 30°36' E 122°05'0 0.0
2015-Jun-27 20:30N 30°36' E 122°05'0 0.3
2015-Jun-27 19:33N 30°36' E 122°05'1010.5
2015-Jun-27 18:33N 30°33' E 122°17'9 9.5
2015-Jun-27 17:33N 30°32' E 122°27'1411.0
2015-Jun-27 16:17N 30°32' E 122°44'810.9
2015-Jun-27 15:32N 30°34' E 122°53'  
Track history (hours):
 
Tides and Currents Weather Stations Pressure Air Temp Water Temp Dewpoint Dewpoint Depression Visibility Wind Speed Wind Dir Waves Ship Positions

APL Norway

Last reported at 2015-Jul-01 18:32 UTC. Time now 2015-Jul-01 23:10 UTC.
Position N 22°07' E 114°30'.

Length 295 m; draft 10.9 m.

Type: Cargo ship. MMSI: 636013456.

Date/timePositionNaut miles runAvg speedWind from/ knotsBaromVisibWave heightAir tempDewpointWater temp
2015-Jul-01 18:32N 22°07' E 114°30'1515.4
2015-Jul-01 17:32N 22°08' E 114°13'1111.1
2015-Jul-01 16:33N 22°16' E 114°06'4 3.9
2015-Jul-01 15:31N 22°20' E 114°08'0 0.0
2015-Jul-01 14:31N 22°20' E 114°08'0 0.0
2015-Jul-01 13:31N 22°20' E 114°08'0 0.0
2015-Jul-01 12:31N 22°20' E 114°08'0 0.0
2015-Jul-01 11:31N 22°20' E 114°08'0 0.0
2015-Jul-01 10:31N 22°20' E 114°08'0 0.0
2015-Jul-01 09:31N 22°20' E 114°08'0 0.0
2015-Jul-01 08:31N 22°20' E 114°08'0 0.0
2015-Jul-01 07:31N 22°20' E 114°08'2 1.7
2015-Jul-01 06:33N 22°19' E 114°06'1 1.2
2015-Jul-01 05:27N 22°19' E 114°05'0 0.0
2015-Jul-01 04:33N 22°19' E 114°05'0 0.0
2015-Jul-01 03:33N 22°19' E 114°05'0 0.1
2015-Jul-01 02:27N 22°19' E 114°05'0 0.2
2015-Jul-01 01:33N 22°19' E 114°05'0 0.2
2015-Jul-01 00:33N 22°19' E 114°05'0 0.1
2015-Jun-30 23:33N 22°19' E 114°05'8 7.7
2015-Jun-30 22:34N 22°21' E 113°56'8 7.8
2015-Jun-30 21:32N 22°28' E 113°53'0 0.0
2015-Jun-30 20:03N 22°28' E 113°53'0 0.0
2015-Jun-30 19:03N 22°28' E 113°53'0 0.0
2015-Jun-30 18:21N 22°28' E 113°53'0 0.0
2015-Jun-30 16:15N 22°28' E 113°53'0 0.0
2015-Jun-30 14:09N 22°28' E 113°53'0 0.0
2015-Jun-30 13:21N 22°28' E 113°53'0 0.0
2015-Jun-30 12:27N 22°28' E 113°53'0 0.0
2015-Jun-30 11:32N 22°28' E 113°53'4 3.8
2015-Jun-30 10:33N 22°24' E 113°54'11 8.9
2015-Jun-30 09:17N 22°20' E 114°05'17 9.6
2015-Jun-30 07:33N 22°09' E 114°18'22516.0
2015-Jun-29 17:31N 23°37' E 118°03'2420.0
2015-Jun-29 16:18N 23°54' E 118°22'4019.3
2015-Jun-29 14:15N 24°18' E 118°56'7018.2
2015-Jun-29 10:25N 25°00' E 119°57'1517.0
2015-Jun-29 09:32N 25°09' E 120°09'34515.7
2015-Jun-28 11:30N 30°25' E 122°48'1916.3
2015-Jun-28 10:20N 30°32' E 122°28'1013.3
2015-Jun-28 09:33N 30°33' E 122°16'10 9.3
2015-Jun-28 08:30N 30°36' E 122°05'0 0.0
2015-Jun-27 20:30N 30°36' E 122°05'0 0.3
2015-Jun-27 19:33N 30°36' E 122°05'1010.5
2015-Jun-27 18:33N 30°33' E 122°17'9 9.5
2015-Jun-27 17:33N 30°32' E 122°27'1411.0
2015-Jun-27 16:17N 30°32' E 122°44'810.9
2015-Jun-27 15:32N 30°34' E 122°53'  

Dump ship's entire track history